Details From GCHI - Hierro
To LEZL - Sevilla
Flight Number -
Tags Generated
Created
Modified
Stats Distance 835 nm / 1,547 km
Max Altitude 0 ft / 0 m
Waypoints 5
Social Downloads 2
Likes 0
Share VATSIM

Download

Looking for another format? Having issues loading an existing format? Contact us
Advertisement - Login to hide

Notes

Generated

Route

GCHI MITLA SUNID SVL08 LEZL

ID Type Via Altitude Latitude Longitude Leg Dist Tot Dist Heading (true) Name
O GCHI APT - 0 ft / 0 m 27.81985˚ -17.88997˚ - 0 nm - -
MITLA FIX - 0 ft / 0 m 31.30833˚ -14.08222˚ 288 nm 288 nm 43° / 44° -
SUNID FIX - 0 ft / 0 m 34.61972˚ -10.15667˚ 280 nm 569 nm 44° / 46° -
SVL08 FIX - 0 ft / 0 m 37.41612˚ -5.92905˚ 265 nm 834 nm 49° / 52° -
O LEZL APT - 0 ft / 0 m 37.41788˚ -5.91208˚ 0 nm 835 nm 83° / 83° -

Altitude Profile

Advertisement - Login to hide

Weather


0- 5 10 15 20 25 30 35+ Temperature / ° C

Clouds and Precipitation
Forecast for 2017-12-11 06:00 UTC. Updated an hour ago

Ground ~20,000 ft ~40,000 ft Winds

GCHI

Details ICAO GCHI (VDE)
Name Hierro
Region Canary Islands
Timezone Atlantic/Canary (UTC+0.0)
Stats Elevation 337 ft / 103 m (AMSL)
Location 27.814848° -17.887052°
Runways 1
Magnetic Variation 5.630° W

METAR

GCHI 110600Z AUTO 32015KT 9999 NCD 19/13 Q1020

Decode

TAF

TAF GCHI 110200Z 1103/1203 32015KT 9999 SCT025 TX23/1113Z TN18/1106Z TEMPO 1108/1115 30015G30KT PROB30 TEMPO 1119/1203 3000 RA BKN014

Decode

Departure Runways

ID Width Length Bearing (true) Bearing (mag) Surface Threshold Offset Overrun Length
16 98 ft / 30 m 4,110 ft / 1,253 m 152.71° 158.34° Asphalt 0 ft / 0 m 112 ft / 34 m
34 98 ft / 30 m 4,110 ft / 1,253 m 332.71° 338.34° Asphalt 0 ft / 0 m 105 ft / 32 m

LEZL

Details ICAO LEZL (SVQ)
Name Sevilla
Region Spain
Timezone Europe/Madrid (UTC+1.0)
Stats Elevation 111 ft / 34 m (AMSL)
Location 37.417939° -5.893093°
Runways 1
Magnetic Variation 1.298° W

METAR

LEZL 110600Z 28015KT 9999 RA FEW020 SCT030 13/12 Q0999 NOSIG

Decode

TAF

TAF AMD LEZL 110527Z 1105/1203 28015G25KT 9999 SCT008 BKN014 TX15/1114Z TN10/1203Z TEMPO 1105/1108 2500 RA BKN008 BECMG 1107/1109 22010KT CAVOK BECMG 1118/1120 VRB03KT

Decode

Destination Runways

ID Width Length Bearing (true) Bearing (mag) Surface Threshold Offset Overrun Length
09 148 ft / 45 m 11,008 ft / 3,355 m 89.75° 91.05° Asphalt 0 ft / 0 m 0 ft / 0 m
27 148 ft / 45 m 11,008 ft / 3,355 m 269.77° 271.07° Asphalt 0 ft / 0 m 0 ft / 0 m

Approach Navaids

Runway Type Ident Frequency Range Bearing (true) Bearing (mag) Slope Elevation
09 Localiser ISE 111.10 MHz 18 nm / 33 km 89.77° 91.07° - 111 ft / 34 m (AMSL)
09 Glidescope ISE 111.10 MHz 10 nm / 19 km 89.76° 91.05° 3.00° 111 ft / 34 m (AMSL)
09 DME ISE 111.10 MHz 18 nm / 33 km - - - 102 ft / 31 m (AMSL)
27 Localiser ISV 110.10 MHz 18 nm / 33 km 269.74° 271.04° - 111 ft / 34 m (AMSL)
27 Glidescope ISV 110.10 MHz 10 nm / 19 km 269.76° 271.05° 3.00° 22 ft / 7 m (AMSL)
27 DME ISV 110.10 MHz 18 nm / 33 km - - - 22 ft / 7 m (AMSL)